NORTHERN QUEENS  -  Freeze Warning Freeze Warning        SOUTHERN QUEENS  -  Freeze Warning Freeze Warning      

Active alerts

Northern Queens
  Details for Northern Queens Freeze Warning
Southern Queens
  Details for Southern Queens Freeze Warning


WXM80 ListenWXM80 Stop

You find our weather info also at:

UK Metoffice

WeatherCloud

Weather Underground

Northeastern Weather Network

AWEKAS

Citizen Weather Observer Program (CWOP)

HAMweather, WeatherForYou, PWS Weather


Weather Underground History page Text

Daily Summary for December 12, 2017 Units:  English    Metric   Both
« Previous Day
Next Day »
Daily Weekly Monthly Yearly Custom
  High: Low: Average:
Temperature: 52.2 °F 33.0 °F 41.6 °F
Dew Point: 46.4 °F 22.5 °F 35.4 °F
Humidity: 93 % 65 % 78 %
Wind Speed: 12.5 mph 0.0 mph 3.8 mph
Wind Gust: 26.5 mph - -
Wind:- - SW
Pressure: 29.95 in 29.40 in -
Precipitation: 0.00 in    
Historical Graphs
 
 
Tabular Data for December 12, 2017
Time Temperature Dew Point Pressure Wind Wind Speed Wind Gust Humidity Rainfall Rate (Hourly)
00:01 34.9 °F 28.1 °F 29.95 in Calm     76 % 0.00 in
00:06 34.9 °F 28.1 °F 29.95 in West 0.1 mph 2.0 mph 76 % 0.00 in
00:08 34.8 °F 28.0 °F 29.95 in West 0.3 mph 1.2 mph 76 % 0.00 in
00:13 34.8 °F 27.7 °F 29.94 in Calm     75 % 0.00 in
00:18 34.8 °F 28.0 °F 29.94 in Calm     76 % 0.00 in
00:23 34.8 °F 28.0 °F 29.94 in Calm     76 % 0.00 in
00:33 34.8 °F 28.0 °F 29.93 in Calm     76 % 0.00 in
00:38 34.8 °F 27.7 °F 29.93 in West 0.2 mph 2.3 mph 75 % 0.00 in
00:49 34.9 °F 27.5 °F 29.93 in Calm     74 % 0.00 in
01:04 35.1 °F 27.3 °F 29.92 in West 0.4 mph 2.0 mph 73 % 0.00 in
01:14 35.2 °F 27.4 °F 29.91 in South 0.7 mph 2.3 mph 73 % 0.00 in
01:19 35.2 °F 27.1 °F 29.91 in SSE 0.9 mph 2.3 mph 72 % 0.00 in
01:21 35.2 °F 27.4 °F 29.91 in SSE 0.6 mph 1.2 mph 73 % 0.00 in
01:31 35.4 °F 27.3 °F 29.90 in SE 0.8 mph 3.5 mph 72 % 0.00 in
01:36 35.5 °F 27.0 °F 29.90 in SE 0.4 mph 2.3 mph 71 % 0.00 in
01:41 35.7 °F 27.2 °F 29.90 in SE 0.3 mph   71 % 0.00 in
01:46 35.7 °F 27.2 °F 29.91 in Calm   1.2 mph 71 % 0.00 in
01:51 35.8 °F 27.3 °F 29.90 in SE 0.4 mph 2.3 mph 71 % 0.00 in
01:56 35.8 °F 27.3 °F 29.90 in Calm     71 % 0.00 in
02:01 35.8 °F 27.3 °F 29.90 in Calm   2.3 mph 71 % 0.00 in
02:16 35.9 °F 27.7 °F 29.89 in SE 0.4 mph 1.2 mph 72 % 0.00 in
02:22 35.9 °F 27.7 °F 29.88 in SE 1.5 mph 2.3 mph 72 % 0.00 in
02:27 35.9 °F 27.7 °F 29.88 in SE 0.7 mph 2.3 mph 72 % 0.00 in
02:32 35.9 °F 27.7 °F 29.87 in SE 1.8 mph 3.5 mph 72 % 0.00 in
02:37 35.9 °F 27.7 °F 29.87 in SE 1.4 mph 3.0 mph 72 % 0.00 in
02:42 35.9 °F 28.1 °F 29.87 in SE 1.7 mph 3.5 mph 73 % 0.00 in
02:47 35.9 °F 28.1 °F 29.86 in SSE 1.7 mph 3.5 mph 73 % 0.00 in
02:52 36.0 °F 28.2 °F 29.86 in SSE 1.3 mph 3.5 mph 73 % 0.00 in
02:57 36.0 °F 28.2 °F 29.86 in SSE 0.8 mph 2.3 mph 73 % 0.00 in
03:02 36.0 °F 28.2 °F 29.86 in SSE 0.1 mph 1.2 mph 73 % 0.00 in
03:07 36.1 °F 28.3 °F 29.85 in Calm   1.2 mph 73 % 0.00 in
03:12 36.1 °F 28.6 °F 29.85 in SSE 0.5 mph 2.3 mph 74 % 0.00 in
03:17 36.2 °F 28.7 °F 29.85 in SSE 1.2 mph 2.3 mph 74 % 0.00 in
03:22 36.2 °F 28.7 °F 29.84 in Calm   2.3 mph 74 % 0.00 in
03:27 36.3 °F 28.8 °F 29.84 in Calm   1.2 mph 74 % 0.00 in
03:32 36.5 °F 29.0 °F 29.84 in SSE 0.2 mph 1.2 mph 74 % 0.00 in
03:42 36.7 °F 29.5 °F 29.83 in SSE 0.9 mph 2.0 mph 75 % 0.00 in
03:47 36.8 °F 29.6 °F 29.82 in SSE 0.8 mph 1.2 mph 75 % 0.00 in
03:52 36.8 °F 29.6 °F 29.82 in SSE 0.9 mph 2.3 mph 75 % 0.00 in
03:57 36.8 °F 29.9 °F 29.82 in SSE 0.1 mph 2.3 mph 76 % 0.00 in
04:27 37.4 °F 31.2 °F 29.80 in SE 0.4 mph 1.2 mph 78 % 0.00 in
04:33 37.5 °F 31.3 °F 29.80 in SE 2.6 mph 4.0 mph 78 % 0.00 in
04:38 37.6 °F 31.7 °F 29.80 in SE 0.8 mph 2.3 mph 79 % 0.00 in
04:48 37.8 °F 31.9 °F 29.79 in SE 0.5 mph 3.5 mph 79 % 0.00 in
04:53 37.9 °F 32.3 °F 29.78 in SE 0.4 mph 2.3 mph 80 % 0.00 in
04:58 38.0 °F 32.4 °F 29.78 in SE 0.3 mph 1.2 mph 80 % 0.00 in
05:03 38.0 °F 32.4 °F 29.78 in SE 0.3 mph 2.3 mph 80 % 0.00 in
05:08 38.1 °F 32.5 °F 29.78 in SE 0.5 mph 3.0 mph 80 % 0.00 in
05:13 38.2 °F 32.9 °F 29.77 in SE 0.2 mph 1.2 mph 81 % 0.00 in
05:18 38.2 °F 32.9 °F 29.77 in Calm   1.0 mph 81 % 0.00 in
05:23 38.3 °F 33.0 °F 29.76 in SE 1.3 mph 2.3 mph 81 % 0.00 in
05:33 38.4 °F 33.4 °F 29.75 in ESE 0.8 mph 2.3 mph 82 % 0.00 in
05:38 38.6 °F 33.6 °F 29.75 in ESE 1.2 mph 2.3 mph 82 % 0.00 in
05:48 38.8 °F 34.1 °F 29.74 in ESE 1.7 mph 2.3 mph 83 % 0.00 in
05:53 39.0 °F 34.3 °F 29.74 in ESE 1.7 mph 3.5 mph 83 % 0.00 in
05:58 39.2 °F 34.8 °F 29.74 in South 1.2 mph 3.5 mph 84 % 0.00 in
06:13 39.9 °F 35.5 °F 29.74 in SE 1.5 mph 4.0 mph 84 % 0.00 in
06:18 40.2 °F 35.8 °F 29.74 in SSE 2.2 mph 3.5 mph 84 % 0.00 in
06:23 40.5 °F 36.0 °F 29.73 in SSE 2.3 mph 4.6 mph 84 % 0.00 in
06:28 41.0 °F 36.5 °F 29.73 in SE 2.8 mph 5.8 mph 84 % 0.00 in
06:33 41.5 °F 37.0 °F 29.73 in South 3.2 mph 7.0 mph 84 % 0.00 in
06:38 41.8 °F 37.0 °F 29.72 in SSE 3.0 mph 3.5 mph 83 % 0.00 in
06:43 42.1 °F 37.3 °F 29.72 in SE 4.2 mph 8.1 mph 83 % 0.00 in
06:49 42.5 °F 37.7 °F 29.71 in SE 6.5 mph 6.5 mph 83 % 0.00 in
06:59 43.1 °F 38.0 °F 29.70 in SE 5.0 mph 6.9 mph 82 % 0.00 in
07:04 43.4 °F 38.3 °F 29.70 in SSE 4.6 mph 6.9 mph 82 % 0.00 in
07:09 43.6 °F 38.2 °F 29.70 in SE 2.6 mph 5.8 mph 81 % 0.00 in
07:15 43.8 °F 38.3 °F 29.69 in SE 3.1 mph 7.0 mph 81 % 0.00 in
07:20 43.8 °F 38.7 °F 29.69 in South 4.6 mph 9.2 mph 82 % 0.00 in
07:30 44.0 °F 39.2 °F 29.68 in SSE 1.8 mph 5.8 mph 83 % 0.00 in
07:35 44.1 °F 39.3 °F 29.68 in SSE 5.0 mph 8.1 mph 83 % 0.00 in
07:40 44.1 °F 39.3 °F 29.68 in SSE 2.4 mph 3.5 mph 83 % 0.00 in
07:55 44.3 °F 40.1 °F 29.66 in SSE 4.4 mph 8.1 mph 85 % 0.00 in
08:00 44.3 °F 40.1 °F 29.66 in SSE 3.2 mph 4.0 mph 85 % 0.00 in
08:05 44.4 °F 40.5 °F 29.66 in SSE 2.3 mph 5.0 mph 86 % 0.00 in
08:10 44.4 °F 40.5 °F 29.65 in SE 2.6 mph 3.5 mph 86 % 0.00 in
08:25 44.5 °F 41.2 °F 29.65 in SSE 3.5 mph 4.6 mph 88 % 0.00 in
08:41 44.7 °F 41.4 °F 29.64 in SSE 3.0 mph 7.0 mph 88 % 0.00 in
08:46 44.9 °F 41.8 °F 29.63 in SE 5.0 mph 9.0 mph 89 % 0.00 in
08:51 45.0 °F 42.0 °F 29.63 in SE 2.0 mph 8.0 mph 89 % 0.00 in
08:56 45.2 °F 42.2 °F 29.63 in SSE 2.0 mph 7.0 mph 89 % 0.00 in
09:01 45.4 °F 42.3 °F 29.62 in South 5.0 mph 8.1 mph 89 % 0.00 in
09:06 45.7 °F 42.3 °F 29.62 in SSE 2.9 mph 6.9 mph 88 % 0.00 in
09:11 45.9 °F 42.5 °F 29.62 in SSE 1.9 mph 3.5 mph 88 % 0.00 in
09:26 46.3 °F 43.2 °F 29.61 in SSW 0.9 mph 3.5 mph 89 % 0.00 in
09:46 46.5 °F 43.7 °F 29.60 in South 0.6 mph 2.3 mph 90 % 0.00 in
09:56 46.5 °F 44.0 °F 29.59 in South 0.5 mph 4.0 mph 91 % 0.00 in
10:06 46.7 °F 44.2 °F 29.58 in SSW 1.4 mph 3.5 mph 91 % 0.00 in
10:11 46.9 °F 44.7 °F 29.58 in South 0.8 mph 3.5 mph 92 % 0.00 in
10:26 47.4 °F 45.2 °F 29.57 in SSW 1.3 mph 3.5 mph 92 % 0.00 in
10:31 47.7 °F 45.5 °F 29.56 in South 0.6 mph 1.2 mph 92 % 0.00 in
10:36 47.9 °F 46.0 °F 29.56 in SW 0.6 mph 3.5 mph 93 % 0.00 in
10:42 48.1 °F 45.9 °F 29.55 in South 1.1 mph 3.5 mph 92 % 0.00 in
10:46 48.3 °F 46.1 °F 29.55 in South 0.9 mph 4.6 mph 92 % 0.00 in
10:51 48.5 °F 46.0 °F 29.55 in SSE 0.2 mph 2.0 mph 91 % 0.00 in
11:12 49.0 °F 45.0 °F 29.53 in South 3.1 mph 3.5 mph 86 % 0.00 in
11:17 49.1 °F 45.1 °F 29.52 in South 1.0 mph 5.8 mph 86 % 0.00 in
11:22 49.3 °F 45.0 °F 29.52 in South 3.1 mph 3.5 mph 85 % 0.00 in
11:27 49.5 °F 44.9 °F 29.51 in SSW 1.6 mph 3.5 mph 84 % 0.00 in
11:32 49.6 °F 45.0 °F 29.51 in South 4.6 mph 11.5 mph 84 % 0.00 in
11:42 50.1 °F 45.1 °F 29.50 in South 3.1 mph 5.8 mph 83 % 0.00 in
11:47 50.3 °F 45.3 °F 29.49 in South 3.5 mph 6.9 mph 83 % 0.00 in
11:52 50.6 °F 45.6 °F 29.49 in SSE 3.7 mph 11.5 mph 83 % 0.00 in
11:57 51.0 °F 46.0 °F 29.48 in SSW 4.2 mph 6.0 mph 83 % 0.00 in
12:02 51.3 °F 46.3 °F 29.47 in South 3.1 mph 5.8 mph 83 % 0.00 in
12:07 51.7 °F 46.1 °F 29.47 in South 3.1 mph 6.9 mph 81 % 0.00 in
12:12 52.0 °F 46.3 °F 29.46 in SSW 4.3 mph 9.0 mph 81 % 0.00 in
12:17 52.1 °F 46.4 °F 29.46 in SSW 6.6 mph 11.0 mph 81 % 0.00 in
12:22 52.2 °F 45.9 °F 29.45 in South 5.0 mph 7.0 mph 79 % 0.00 in
12:27 52.1 °F 45.4 °F 29.45 in SSW 3.7 mph 5.8 mph 78 % 0.00 in
12:37 52.1 °F 45.4 °F 29.44 in SSW 5.5 mph 9.0 mph 78 % 0.00 in
12:47 52.2 °F 45.5 °F 29.44 in South 4.8 mph 9.0 mph 78 % 0.00 in
12:53 52.2 °F 45.5 °F 29.44 in SSE 3.8 mph 6.9 mph 78 % 0.00 in
12:58 52.1 °F 45.4 °F 29.43 in South 3.3 mph 8.1 mph 78 % 0.00 in
13:00 52.1 °F 45.4 °F 29.42 in SSW 3.3 mph 9.2 mph 78 % 0.00 in
13:10 51.9 °F 45.3 °F 29.42 in South 4.2 mph 10.0 mph 78 % 0.00 in
13:20 51.7 °F 45.4 °F 29.42 in SW 3.0 mph 4.6 mph 79 % 0.00 in
13:25 51.5 °F 44.9 °F 29.42 in SW 5.8 mph 12.0 mph 78 % 0.00 in
13:35 51.1 °F 43.8 °F 29.42 in SW 4.7 mph 11.5 mph 76 % 0.00 in
13:40 51.0 °F 43.7 °F 29.42 in West 5.5 mph 8.1 mph 76 % 0.00 in
13:51 50.3 °F 42.7 °F 29.42 in WNW 3.0 mph 13.0 mph 75 % 0.00 in
13:56 49.9 °F 42.6 °F 29.42 in West 5.0 mph 9.0 mph 76 % 0.00 in
14:06 49.2 °F 42.0 °F 29.41 in SW 6.3 mph 16.1 mph 76 % 0.00 in
14:16 48.5 °F 42.0 °F 29.42 in West 2.6 mph 7.0 mph 78 % 0.00 in
14:21 48.1 °F 41.2 °F 29.41 in WSW 6.4 mph 13.0 mph 77 % 0.00 in
14:26 47.8 °F 40.9 °F 29.42 in NW 3.3 mph 11.5 mph 77 % 0.00 in
14:31 47.5 °F 40.3 °F 29.41 in WNW 9.2 mph 15.0 mph 76 % 0.00 in
14:36 47.3 °F 40.1 °F 29.41 in WNW 6.8 mph 11.5 mph 76 % 0.00 in
14:41 47.1 °F 39.9 °F 29.41 in SW 3.6 mph 6.9 mph 76 % 0.00 in
14:46 46.9 °F 40.1 °F 29.41 in West 6.0 mph 12.7 mph 77 % 0.00 in
14:51 46.7 °F 39.5 °F 29.42 in WSW 6.8 mph 9.2 mph 76 % 0.00 in
14:56 46.6 °F 39.8 °F 29.41 in SW 4.1 mph 7.0 mph 77 % 0.00 in
15:01 46.5 °F 39.7 °F 29.41 in NW 2.4 mph 9.2 mph 77 % 0.00 in
15:06 46.4 °F 39.6 °F 29.41 in West 4.9 mph 9.2 mph 77 % 0.00 in
15:11 46.3 °F 39.5 °F 29.41 in WNW 4.1 mph 9.2 mph 77 % 0.00 in
15:16 46.3 °F 39.8 °F 29.41 in WNW 4.5 mph 8.1 mph 78 % 0.00 in
15:26 46.1 °F 39.6 °F 29.40 in WNW 3.9 mph 11.5 mph 78 % 0.00 in
15:31 46.0 °F 39.9 °F 29.41 in WNW 4.1 mph 11.5 mph 79 % 0.00 in
15:36 45.9 °F 40.1 °F 29.41 in NW 4.7 mph 9.2 mph 80 % 0.00 in
15:41 45.8 °F 40.0 °F 29.40 in NW 3.9 mph 9.2 mph 80 % 0.00 in
15:46 45.6 °F 39.8 °F 29.41 in WNW 5.6 mph 6.9 mph 80 % 0.00 in
15:51 45.4 °F 39.9 °F 29.40 in NW 6.6 mph 11.5 mph 81 % 0.00 in
16:07 44.8 °F 39.6 °F 29.41 in West 2.4 mph 11.5 mph 82 % 0.00 in
16:12 44.6 °F 39.8 °F 29.41 in NW 2.6 mph 7.0 mph 83 % 0.00 in
16:17 44.3 °F 39.2 °F 29.41 in WNW 5.6 mph 11.5 mph 82 % 0.00 in
16:27 44.0 °F 38.9 °F 29.40 in NW 4.0 mph 6.9 mph 82 % 0.00 in
16:32 43.9 °F 38.8 °F 29.40 in WNW 5.7 mph 9.2 mph 82 % 0.00 in
16:37 43.7 °F 38.6 °F 29.40 in WNW 5.4 mph 10.4 mph 82 % 0.00 in
16:42 43.6 °F 38.5 °F 29.40 in WNW 5.2 mph 15.0 mph 82 % 0.00 in
16:52 43.5 °F 38.7 °F 29.40 in WNW 4.7 mph 7.0 mph 83 % 0.00 in
16:57 43.4 °F 38.6 °F 29.40 in West 5.1 mph 8.1 mph 83 % 0.00 in
17:02 43.3 °F 38.8 °F 29.40 in West 4.4 mph 9.2 mph 84 % 0.00 in
17:07 43.3 °F 38.8 °F 29.41 in NW 2.9 mph 5.8 mph 84 % 0.00 in
17:12 43.2 °F 38.4 °F 29.41 in WNW 2.2 mph 4.0 mph 83 % 0.00 in
17:17 43.2 °F 38.7 °F 29.41 in WNW 1.7 mph 3.5 mph 84 % 0.00 in
17:22 43.2 °F 38.7 °F 29.41 in WNW 2.5 mph 7.0 mph 84 % 0.00 in
17:27 43.1 °F 38.6 °F 29.41 in West 2.3 mph 6.9 mph 84 % 0.00 in
17:32 43.1 °F 38.6 °F 29.41 in WNW 2.7 mph 6.9 mph 84 % 0.00 in
17:42 43.0 °F 38.5 °F 29.42 in WSW 3.1 mph 5.8 mph 84 % 0.00 in
17:47 43.0 °F 38.5 °F 29.41 in WSW 4.9 mph 9.2 mph 84 % 0.00 in
17:57 43.0 °F 38.5 °F 29.41 in NW 4.8 mph 11.5 mph 84 % 0.00 in
18:08 42.9 °F 37.8 °F 29.41 in West 5.6 mph 10.0 mph 82 % 0.00 in
18:18 42.8 °F 37.1 °F 29.41 in WNW 7.3 mph 17.3 mph 80 % 0.00 in
18:28 42.6 °F 36.9 °F 29.41 in West 7.6 mph 12.7 mph 80 % 0.00 in
18:33 42.5 °F 36.8 °F 29.41 in West 9.7 mph 12.7 mph 80 % 0.00 in
18:38 42.5 °F 36.4 °F 29.42 in West 5.6 mph 8.1 mph 79 % 0.00 in
18:48 42.3 °F 36.3 °F 29.42 in West 5.2 mph 10.4 mph 79 % 0.00 in
18:53 42.2 °F 36.2 °F 29.42 in SSW 6.9 mph 11.5 mph 79 % 0.00 in
18:58 42.0 °F 36.0 °F 29.42 in NW 3.9 mph 9.0 mph 79 % 0.00 in
19:03 41.9 °F 35.5 °F 29.42 in WNW 7.3 mph 15.0 mph 78 % 0.00 in
19:08 41.7 °F 35.0 °F 29.42 in WSW 5.6 mph 9.0 mph 77 % 0.00 in
19:13 41.6 °F 34.9 °F 29.42 in West 7.2 mph 11.5 mph 77 % 0.00 in
19:18 41.4 °F 35.1 °F 29.41 in West 3.3 mph 9.2 mph 78 % 0.00 in
19:23 41.3 °F 35.0 °F 29.42 in WSW 7.4 mph 11.5 mph 78 % 0.00 in
19:28 41.1 °F 34.8 °F 29.41 in WNW 5.3 mph 9.2 mph 78 % 0.00 in
19:33 41.0 °F 34.7 °F 29.42 in West 6.9 mph 11.5 mph 78 % 0.00 in
19:34 41.0 °F 34.7 °F 29.41 in WNW 6.2 mph 11.5 mph 78 % 0.00 in
19:39 40.9 °F 34.6 °F 29.42 in WNW 3.7 mph 11.5 mph 78 % 0.00 in
19:44 40.8 °F 34.5 °F 29.42 in WSW 10.7 mph 17.0 mph 78 % 0.00 in
19:49 40.7 °F 34.4 °F 29.43 in WSW 9.6 mph 11.5 mph 78 % 0.00 in
19:54 40.6 °F 34.3 °F 29.42 in NW 12.1 mph 16.0 mph 78 % 0.00 in
19:59 40.5 °F 33.9 °F 29.42 in WNW 6.1 mph 12.7 mph 77 % 0.00 in
20:04 40.5 °F 33.9 °F 29.42 in West 6.6 mph 13.8 mph 77 % 0.00 in
20:09 40.4 °F 34.1 °F 29.42 in NNW 12.4 mph 26.5 mph 78 % 0.00 in
20:14 40.2 °F 33.9 °F 29.43 in West 12.5 mph 19.6 mph 78 % 0.00 in
20:24 39.4 °F 31.8 °F 29.43 in West 9.8 mph 18.4 mph 74 % 0.00 in
20:29 38.9 °F 31.3 °F 29.43 in WNW 5.8 mph 19.6 mph 74 % 0.00 in
20:34 38.4 °F 29.8 °F 29.43 in WNW 9.2 mph 21.9 mph 71 % 0.00 in
20:39 38.0 °F 29.1 °F 29.43 in WSW 9.6 mph 19.6 mph 70 % 0.00 in
20:49 37.4 °F 27.8 °F 29.42 in NW 8.0 mph 15.0 mph 68 % 0.00 in
20:59 36.9 °F 27.3 °F 29.41 in West 8.4 mph 20.7 mph 68 % 0.00 in
21:04 36.7 °F 27.1 °F 29.41 in NNW 9.3 mph 19.6 mph 68 % 0.00 in
21:24 36.2 °F 27.4 °F 29.42 in NW 5.3 mph 12.7 mph 70 % 0.00 in
21:34 36.0 °F 26.5 °F 29.42 in North 8.8 mph 19.6 mph 68 % 0.00 in
21:39 35.9 °F 26.4 °F 29.43 in WNW 11.3 mph 19.6 mph 68 % 0.00 in
21:44 35.8 °F 26.3 °F 29.42 in WNW 6.4 mph 15.0 mph 68 % 0.00 in
21:59 35.5 °F 26.7 °F 29.42 in WNW 8.4 mph 11.5 mph 70 % 0.00 in
22:03 35.4 °F 26.2 °F 29.42 in West 8.6 mph 13.8 mph 69 % 0.00 in
22:08 35.3 °F 26.1 °F 29.42 in WNW 6.1 mph 11.5 mph 69 % 0.00 in
22:14 35.1 °F 25.9 °F 29.41 in NW 6.3 mph 16.1 mph 69 % 0.00 in
22:19 35.0 °F 26.2 °F 29.42 in NW 6.7 mph 12.0 mph 70 % 0.00 in
22:20 34.9 °F 26.1 °F 29.42 in WNW 6.9 mph 11.5 mph 70 % 0.00 in
22:25 34.8 °F 26.4 °F 29.43 in NNW 7.4 mph 15.0 mph 71 % 0.00 in
22:26 34.8 °F 26.4 °F 29.43 in WNW 7.0 mph 15.0 mph 71 % 0.00 in
22:31 34.6 °F 25.8 °F 29.42 in WNW 7.9 mph 13.8 mph 70 % 0.00 in
22:36 34.6 °F 26.2 °F 29.42 in NW 4.1 mph 6.9 mph 71 % 0.00 in
22:41 34.5 °F 26.1 °F 29.42 in NW 6.1 mph 19.6 mph 71 % 0.00 in
22:56 34.1 °F 24.6 °F 29.44 in NNW 5.7 mph 12.7 mph 68 % 0.00 in
23:01 34.0 °F 24.9 °F 29.45 in WNW 6.4 mph 14.0 mph 69 % 0.00 in
23:11 33.8 °F 25.0 °F 29.45 in WNW 7.2 mph 12.7 mph 70 % 0.00 in
23:16 33.8 °F 24.7 °F 29.45 in NW 8.8 mph 15.0 mph 69 % 0.00 in
23:21 33.7 °F 23.9 °F 29.45 in NW 5.4 mph 9.2 mph 67 % 0.00 in
23:26 33.7 °F 23.9 °F 29.45 in NNW 10.3 mph 19.6 mph 67 % 0.00 in
23:31 33.6 °F 24.2 °F 29.45 in NW 6.4 mph 13.8 mph 68 % 0.00 in
23:36 33.5 °F 23.7 °F 29.45 in NW 6.5 mph 12.7 mph 67 % 0.00 in
23:46 33.2 °F 23.1 °F 29.45 in WNW 8.2 mph 11.5 mph 66 % 0.00 in
23:51 33.0 °F 23.2 °F 29.45 in NW 5.2 mph 10.4 mph 67 % 0.00 in
23:56 33.0 °F 22.5 °F 29.45 in WNW 9.0 mph 13.8 mph 65 % 0.00 in
Crab Meadow Weather
Compliments of Weather Underground - 2.5 mb

Script developed by  Jim McMurry - jmcmurry@mwt.net Adapted for the template by  Wim van der Kuil - Leuven-Template.eu

Wind Chill: Everyone has noticed that in winter it seems colder when the wind is blowing. Mothers recognize this and tell their children to wear more clothes. The question the children ask is how much more clothes. Mothers answer very precisely because Mothers know everything. For the rest of us, wind chill calculations are the basis for determining the effect of wind on body heat loss. The wind chill equivalent temperature equation is: Wind chill temperature = 35.74 + 0.6215T - 35.75V (**0.16) + 0.4275TV(**0.16) where T is the air temperature in Fahrenheit and V is the wind speed in MPH.